EDT,Max TemperatureF,Mean TemperatureF,Min TemperatureF,Max Dew PointF,MeanDew PointF,Min DewpointF,Max Humidity, Mean Humidity, Min Humidity, Max Sea Level PressureIn, Mean Sea Level PressureIn, Min Sea Level PressureIn, Max VisibilityMiles, Mean VisibilityMiles, Min VisibilityMiles, Max Wind SpeedMPH, Mean Wind SpeedMPH, Max Gust SpeedMPH,PrecipitationIn, CloudCover, Events, WindDirDegrees
2013-3-1,32,31,29,30,29,27,100,93,85,29.65,29.60,29.53,6,2,1,20,10,25,0.22,8,Snow,356
2013-3-2,36,33,30,34,31,27,100,91,82,29.62,29.60,29.57,10,8,1,16,9,18,0.04,8,Rain-Snow,325
2013-3-3,42,38,33,36,33,30,96,86,76,29.59,29.53,29.46,10,9,2,13,6,15,0.03,8,Rain-Snow,323
2013-3-4,35,33,30,33,30,27,96,89,82,29.68,29.49,29.42,10,3,1,20,10,26,0.21,8,Rain-Snow,322
2013-3-5,40,37,33,34,32,30,96,83,70,30.16,29.96,29.70,10,10,7,21,13,24,0.01,8,Rain-Snow,17
2013-3-6,37,34,31,32,27,21,96,78,59,30.32,30.26,30.16,10,8,1,20,11,26,0.01,8,Snow,48
2013-3-7,38,34,30,23,22,21,69,61,52,30.27,30.21,30.15,10,10,9,24,15,31,T,8,Snow,36
2013-3-8,45,37,29,23,21,18,75,56,36,30.24,30.16,30.12,10,10,10,29,19,38,0.00,5,,22
2013-3-9,42,33,24,23,22,21,81,62,43,30.40,30.30,30.23,10,10,10,20,12,23,0.00,3,,22
2013-3-10,39,30,21,27,23,20,92,73,54,30.44,30.38,30.30,10,10,10,13,4,20,0.00,6,,174
2013-3-11,42,37,32,38,33,27,100,85,70,30.30,30.21,30.15,10,9,4,20,9,25,0.00,7,,179
2013-3-12,49,44,39,47,42,37,100,90,80,30.15,30.04,29.80,10,7,2,22,10,28,0.41,8,Rain,167
2013-3-13,49,40,31,48,40,23,100,82,64,29.76,29.69,29.64,10,5,1,21,10,30,0.18,7,Rain,254
2013-3-14,42,32,21,27,21,10,81,61,40,29.70,29.65,29.59,10,10,10,23,6,26,T,4,,274
2013-3-15,33,25,16,16,8,5,63,48,32,29.76,29.67,29.59,10,10,4,18,13,30,T,4,Snow,305
2013-3-16,33,26,19,21,12,6,91,62,33,29.89,29.75,29.62,10,9,2,17,8,23,T,6,Snow,319
2013-3-17,29,21,12,8,1,-8,73,48,23,30.29,30.02,29.89,10,10,10,28,8,37,0.00,2,,301
2013-3-18,33,22,10,12,-2,-7,65,43,21,30.42,30.34,30.29,10,10,10,18,7,25,0.00,3,,281
2013-3-19,26,24,21,22,16,-1,100,68,36,30.31,30.00,29.70,10,3,0,21,9,29,0.61,8,Fog-Snow,65
2013-3-20,32,25,17,23,17,12,92,73,54,29.69,29.60,29.54,10,6,0,22,12,32,0.13,7,Snow,318
2013-3-21,37,28,18,19,15,11,92,65,38,29.75,29.69,29.60,10,10,10,9,6,17,0.00,1,,198
2013-3-22,38,23,7,17,13,7,96,66,35,29.61,29.58,29.54,10,10,10,20,6,26,0.00,3,,310
2013-3-23,37,30,23,23,18,13,68,56,44,29.56,29.48,29.41,10,10,10,24,10,38,0.00,5,,280
2013-3-24,41,32,23,27,24,22,92,70,48,29.76,29.69,29.56,10,10,10,22,9,26,0.00,4,,311
2013-3-25,42,32,21,29,26,23,92,71,49,29.77,29.72,29.62,10,10,10,20,6,24,0.00,6,,18
2013-3-26,45,37,28,31,25,21,82,66,49,29.68,29.61,29.55,10,10,10,24,11,30,T,4,Rain,337
2013-3-27,40,36,32,37,34,27,100,88,75,29.86,29.74,29.67,10,9,3,18,8,23,0.19,8,Rain-Snow,332
2013-3-28,50,42,33,35,30,26,96,69,42,29.93,29.89,29.86,10,10,10,17,5,21,0.01,7,Rain,344
2013-3-29,55,42,28,35,30,27,89,64,38,29.98,29.94,29.91,10,10,10,17,6,25,T,6,,280
2013-3-30,52,38,24,29,20,11,100,61,21,30.07,30.00,29.96,10,10,10,18,3,23,0.00,3,,316
2013-3-31,52,36,20,34,20,12,84,54,23,30.12,30.04,29.88,10,10,10,18,3,23,0.00,4,,168